Time;durP1;ratioP1;P1;durP2;ratioP2;P2;SDS_P1;SDS_P2;PMS_P1;PMS_P2;Temp;Humidity;BMP_temperature;BMP_pressure;BME280_temperature;BME280_humidity;BME280_pressure;Samples;Min_cycle;Max_cycle;Signal;HPM_P1;HPM_P2
2021/04/29 00:00:46;;;;;;;;;;;;;;;20.67;45.53;99889.94;2085043;28;3893;-76
2021/04/29 00:01:46;;;;;;;;;;;;;;;20.67;45.53;99875.75;2084346;28;4106;-86
2021/04/29 00:02:48;;;;;;;;;;;;;;;20.66;45.47;99885.47;2085759;28;4265;-89
2021/04/29 00:03:49;;;;;;;;;;;;;;;20.66;45.46;99882.63;2085421;28;3935;-79
2021/04/29 00:04:50;;;;;;;;;;;;;;;20.67;45.47;99875.75;2083724;28;3972;-85
2021/04/29 00:05:51;;;;;;;;;;;;;;;20.67;45.42;99881.44;2084021;28;3919;-76
2021/04/29 00:06:57;;;;;;;;;;;;;;;20.66;45.53;99874.94;2085914;28;3896;-76
2021/04/29 00:07:58;;;;;;;;;;;;;;;20.66;45.63;99879.78;2085505;28;4003;-77
2021/04/29 00:08:59;;;;;;;;;;;;;;;20.66;45.58;99880.59;2085501;28;3766;-76
2021/04/29 00:10:01;;;;;;;;;;;;;;;20.67;45.67;99872.91;2084374;28;3929;-79
2021/04/29 00:11:01;;;;;;;;;;;;;;;20.67;45.53;99875.75;2085646;28;4438;-79
2021/04/29 00:12:02;;;;;;;;;;;;;;;20.68;45.73;99877.41;2085600;28;4052;-79
2021/04/29 00:13:04;;;;;;;;;;;;;;;20.67;45.77;99870.88;2085404;28;4015;-79
2021/04/29 00:14:05;;;;;;;;;;;;;;;20.68;45.64;99874.56;2085496;28;4263;-79
2021/04/29 00:15:06;;;;;;;;;;;;;;;20.70;45.74;99877.84;2084582;28;3997;-79
2021/04/29 00:16:09;;;;;;;;;;;;;;;20.68;45.84;99877.41;2084586;28;3936;-79
2021/04/29 00:17:10;;;;;;;;;;;;;;;20.68;45.70;99885.94;2085682;28;3978;-79
2021/04/29 00:18:11;;;;;;;;;;;;;;;20.67;45.80;99882.25;2085274;28;4012;-79
2021/04/29 00:19:13;;;;;;;;;;;;;;;20.67;45.79;99876.56;2085438;28;4073;-79
2021/04/29 00:20:13;;;;;;;;;;;;;;;20.68;45.75;99886.75;2084303;28;3837;-79
2021/04/29 00:21:15;;;;;;;;;;;;;;;20.68;45.83;99877.41;2085037;28;3925;-85
2021/04/29 00:22:16;;;;;;;;;;;;;;;20.69;45.99;99870.50;2084804;28;4378;-88
2021/04/29 00:23:16;;;;;;;;;;;;;;;20.68;45.93;99878.22;2085383;28;4016;-82
2021/04/29 00:24:17;;;;;;;;;;;;;;;20.68;45.76;99874.56;2085527;28;4007;-81
2021/04/29 00:25:18;;;;;;;;;;;;;;;20.67;45.88;99876.56;2084647;28;4161;-80
2021/04/29 00:26:19;;;;;;;;;;;;;;;20.68;45.92;99871.72;2085192;28;4067;-82
2021/04/29 00:27:19;;;;;;;;;;;;;;;20.68;45.98;99883.91;2085574;28;4010;-79
2021/04/29 00:28:20;;;;;;;;;;;;;;;20.67;45.88;99870.88;2085558;28;4048;-76
2021/04/29 00:29:21;;;;;;;;;;;;;;;20.68;45.94;99875.38;2084886;28;3862;-77
2021/04/29 00:30:21;;;;;;;;;;;;;;;20.67;46.02;99876.56;2083965;28;3858;-77
2021/04/29 00:31:22;;;;;;;;;;;;;;;20.68;45.91;99883.91;2086224;28;4020;-80
2021/04/29 00:32:23;;;;;;;;;;;;;;;20.69;46.10;99873.34;2085237;28;3843;-77
2021/04/29 00:33:24;;;;;;;;;;;;;;;20.69;45.88;99887.56;2084362;28;3828;-77
2021/04/29 00:34:24;;;;;;;;;;;;;;;20.69;46.06;99877.00;2084428;28;4035;-77
2021/04/29 00:35:25;;;;;;;;;;;;;;;20.68;45.89;99880.25;2084389;28;5287;-77
2021/04/29 00:36:28;;;;;;;;;;;;;;;20.69;46.03;99876.19;2085946;28;4069;-78
2021/04/29 00:37:29;;;;;;;;;;;;;;;20.68;46.01;99872.53;2084764;28;3915;-78
2021/04/29 00:38:29;;;;;;;;;;;;;;;20.68;45.92;99869.69;2085261;28;3987;-78
2021/04/29 00:39:30;;;;;;;;;;;;;;;20.68;45.96;99881.06;2085007;28;3981;-76
2021/04/29 00:40:31;;;;;;;;;;;;;;;20.69;46.10;99876.19;2084370;28;3848;-82
2021/04/29 00:41:31;;;;;;;;;;;;;;;20.68;45.96;99868.88;2085280;28;3851;-82
2021/04/29 00:42:32;;;;;;;;;;;;;;;20.68;45.93;99871.72;2084240;28;4001;-81
2021/04/29 00:43:33;;;;;;;;;;;;;;;20.68;46.10;99875.38;2084610;28;4041;-82
2021/04/29 00:44:33;;;;;;;;;;;;;;;20.68;46.03;99868.88;2084831;28;3973;-81
2021/04/29 00:45:34;;;;;;;;;;;;;;;20.69;46.09;99876.19;2084333;28;4118;-81
2021/04/29 00:46:35;;;;;;;;;;;;;;;20.68;46.08;99872.53;2085110;28;4044;-81
2021/04/29 00:47:36;;;;;;;;;;;;;;;20.69;46.03;99871.31;2086097;28;3875;-82
2021/04/29 00:48:37;;;;;;;;;;;;;;;20.69;46.07;99867.66;2084190;28;5114;-81
2021/04/29 00:49:37;;;;;;;;;;;;;;;20.69;45.99;99859.16;2083473;28;3911;-76
2021/04/29 00:50:38;;;;;;;;;;;;;;;20.69;46.03;99870.50;2085558;28;3801;-76
2021/04/29 00:51:39;;;;;;;;;;;;;;;20.68;46.06;99869.69;2084570;28;3792;-75
2021/04/29 00:52:39;;;;;;;;;;;;;;;20.68;46.19;99866.03;2085276;28;4015;-85
2021/04/29 00:53:40;;;;;;;;;;;;;;;20.68;46.09;99861.16;2084582;28;3988;-77
2021/04/29 00:54:41;;;;;;;;;;;;;;;20.69;46.09;99868.50;2085375;28;3764;-76
2021/04/29 00:55:42;;;;;;;;;;;;;;;20.69;46.11;99864.81;2084962;28;3979;-76
2021/04/29 00:56:42;;;;;;;;;;;;;;;20.69;46.20;99864.81;2084757;28;3949;-81
2021/04/29 00:57:43;;;;;;;;;;;;;;;20.69;46.23;99859.97;2084619;28;3773;-74
2021/04/29 00:58:44;;;;;;;;;;;;;;;20.69;46.36;99859.97;2084402;28;3855;-73
2021/04/29 00:59:45;;;;;;;;;;;;;;;20.69;46.18;99859.97;2085455;28;3942;-85
2021/04/29 01:00:45;;;;;;;;;;;;;;;20.69;46.03;99856.31;2084770;28;3670;-77
2021/04/29 01:01:46;;;;;;;;;;;;;;;20.70;46.26;99852.25;2084097;28;3972;-78
2021/04/29 01:02:47;;;;;;;;;;;;;;;20.70;46.19;99855.09;2083900;28;4017;-76
2021/04/29 01:03:48;;;;;;;;;;;;;;;20.70;46.24;99863.63;2084855;28;4016;-75
2021/04/29 01:04:48;;;;;;;;;;;;;;;20.70;46.26;99869.31;2084833;28;4176;-76
2021/04/29 01:05:49;;;;;;;;;;;;;;;20.70;46.32;99863.63;2085163;28;4055;-77
2021/04/29 01:06:50;;;;;;;;;;;;;;;20.70;46.26;99857.94;2084415;28;3992;-77
2021/04/29 01:07:51;;;;;;;;;;;;;;;20.69;46.35;99854.28;2085236;28;5100;-76
2021/04/29 01:08:51;;;;;;;;;;;;;;;20.69;46.26;99854.28;2084977;28;3995;-77
2021/04/29 01:09:52;;;;;;;;;;;;;;;20.69;46.28;99862.81;2085153;28;3980;-78
2021/04/29 01:10:53;;;;;;;;;;;;;;;20.70;46.38;99863.63;2084390;28;4013;-77
2021/04/29 01:11:54;;;;;;;;;;;;;;;20.70;46.43;99860.78;2084004;28;4112;-77
2021/04/29 01:12:54;;;;;;;;;;;;;;;20.68;46.50;99858.31;2084829;28;4033;-77
2021/04/29 01:13:55;;;;;;;;;;;;;;;20.69;46.43;99859.97;2085311;28;4061;-77
2021/04/29 01:14:56;;;;;;;;;;;;;;;20.71;46.58;99859.59;2084304;28;4100;-77
2021/04/29 01:15:56;;;;;;;;;;;;;;;20.71;46.56;99856.75;2084331;28;4004;-77
2021/04/29 01:17:03;;;;;;;;;;;;;;;20.71;46.64;99856.75;2083846;28;4098;-77
2021/04/29 01:18:04;;;;;;;;;;;;;;;20.70;46.48;99855.09;2082053;28;3939;-77
2021/04/29 01:19:05;;;;;;;;;;;;;;;20.71;46.57;99855.94;2085151;28;3998;-77
2021/04/29 01:20:06;;;;;;;;;;;;;;;20.70;46.50;99852.25;2083951;28;4085;-77
2021/04/29 01:21:06;;;;;;;;;;;;;;;20.71;46.69;99859.59;2084470;28;3883;-77
2021/04/29 01:22:07;;;;;;;;;;;;;;;20.71;46.50;99856.75;2084575;28;4038;-77
2021/04/29 01:23:08;;;;;;;;;;;;;;;20.71;46.48;99855.94;2085108;28;5094;-78
2021/04/29 01:24:08;;;;;;;;;;;;;;;20.71;46.50;99859.59;2084949;28;3833;-77
2021/04/29 01:25:10;;;;;;;;;;;;;;;20.70;46.64;99855.09;2084566;28;4028;-78
2021/04/29 01:26:10;;;;;;;;;;;;;;;20.70;46.48;99843.72;2076403;28;3876;-77
2021/04/29 01:27:11;;;;;;;;;;;;;;;20.71;46.50;99851.06;2073022;28;4063;-82
2021/04/29 01:28:12;;;;;;;;;;;;;;;20.71;46.67;99842.56;2081981;28;3820;-81
2021/04/29 01:29:13;;;;;;;;;;;;;;;20.71;46.52;99850.25;2073494;28;3898;-82
2021/04/29 01:30:13;;;;;;;;;;;;;;;20.72;46.48;99849.88;2071293;28;4031;-84
2021/04/29 01:31:14;;;;;;;;;;;;;;;20.71;46.71;99844.56;2081968;28;4013;-82
2021/04/29 01:32:15;;;;;;;;;;;;;;;20.70;46.61;99838.03;2083947;28;3988;-82
2021/04/29 01:33:16;;;;;;;;;;;;;;;20.71;46.60;99851.06;2084337;28;4061;-81
2021/04/29 01:34:17;;;;;;;;;;;;;;;20.71;46.72;99851.06;2084059;28;4065;-83
2021/04/29 01:35:18;;;;;;;;;;;;;;;20.71;46.66;99851.06;2084791;28;4025;-82
2021/04/29 01:36:18;;;;;;;;;;;;;;;20.71;46.68;99848.22;2083557;28;4049;-81
2021/04/29 01:37:19;;;;;;;;;;;;;;;20.71;46.66;99841.72;2083602;28;4034;-82
2021/04/29 01:38:20;;;;;;;;;;;;;;;20.71;46.55;99842.56;2084657;28;4103;-80
2021/04/29 01:39:20;;;;;;;;;;;;;;;20.71;46.73;99839.72;2085369;28;4062;-83
2021/04/29 01:40:21;;;;;;;;;;;;;;;20.71;46.77;99842.56;2076303;28;5185;-83
2021/04/29 01:41:22;;;;;;;;;;;;;;;20.72;46.65;99843.38;2075945;28;4022;-83
2021/04/29 01:42:23;;;;;;;;;;;;;;;20.72;46.59;99844.19;2084513;28;4082;-84
2021/04/29 01:43:23;;;;;;;;;;;;;;;20.72;46.80;99838.50;2085161;28;3987;-83
2021/04/29 01:44:24;;;;;;;;;;;;;;;20.71;46.72;99839.72;2084480;28;3840;-83
2021/04/29 01:45:25;;;;;;;;;;;;;;;20.72;46.70;99832.00;2084310;28;4916;-81
2021/04/29 01:46:26;;;;;;;;;;;;;;;20.72;46.74;99832.81;2084221;28;3930;-81
2021/04/29 01:47:27;;;;;;;;;;;;;;;20.72;46.84;99835.66;2083825;28;4000;-82
2021/04/29 01:48:28;;;;;;;;;;;;;;;20.72;46.80;99835.66;2084988;28;4082;-82
2021/04/29 01:49:28;;;;;;;;;;;;;;;20.73;46.85;99839.31;2084725;28;4438;-81
2021/04/29 01:50:29;;;;;;;;;;;;;;;20.72;46.74;99829.16;2084999;28;3983;-82
2021/04/29 01:51:30;;;;;;;;;;;;;;;20.72;46.78;99823.47;2084502;28;4120;-82
2021/04/29 01:52:31;;;;;;;;;;;;;;;20.73;46.65;99830.78;2084122;28;3832;-79
2021/04/29 01:53:31;;;;;;;;;;;;;;;20.72;46.81;99826.31;2083961;28;4021;-79
2021/04/29 01:54:32;;;;;;;;;;;;;;;20.72;46.70;99827.13;2084774;28;3962;-76
2021/04/29 01:55:33;;;;;;;;;;;;;;;20.72;46.89;99823.47;2084966;28;4016;-77
2021/04/29 01:56:34;;;;;;;;;;;;;;;20.73;46.72;99819.41;2084747;28;3988;-77
2021/04/29 01:57:34;;;;;;;;;;;;;;;20.71;46.67;99816.16;2083528;28;3996;-77
2021/04/29 01:58:35;;;;;;;;;;;;;;;20.71;46.82;99822.66;2083980;28;4139;-77
2021/04/29 01:59:36;;;;;;;;;;;;;;;20.71;46.66;99822.66;2083489;28;3939;-77
2021/04/29 02:00:36;;;;;;;;;;;;;;;20.71;46.80;99819.00;2084975;28;3947;-77
2021/04/29 02:01:37;;;;;;;;;;;;;;;20.72;46.72;99817.78;2084948;28;4006;-77
2021/04/29 02:02:38;;;;;;;;;;;;;;;20.72;46.81;99827.13;2083497;28;4028;-77
2021/04/29 02:03:39;;;;;;;;;;;;;;;20.71;46.83;99816.16;2084367;28;3814;-77
2021/04/29 02:04:42;;;;;;;;;;;;;;;20.71;46.68;99819.81;2084491;28;4016;-77
2021/04/29 02:05:43;;;;;;;;;;;;;;;20.71;46.85;99816.97;2084962;28;3932;-77
2021/04/29 02:06:43;;;;;;;;;;;;;;;20.72;46.81;99817.78;2084553;28;3792;-77
2021/04/29 02:07:44;;;;;;;;;;;;;;;20.72;46.83;99814.94;2083411;28;3982;-77
2021/04/29 02:08:45;;;;;;;;;;;;;;;20.71;46.84;99807.63;2084840;28;3922;-77
2021/04/29 02:09:46;;;;;;;;;;;;;;;20.71;46.85;99807.63;2082580;28;4018;-77
2021/04/29 02:10:46;;;;;;;;;;;;;;;20.71;46.81;99811.28;2084914;28;4076;-77
2021/04/29 02:11:47;;;;;;;;;;;;;;;20.71;46.85;99802.75;2084999;28;4092;-76
2021/04/29 02:12:48;;;;;;;;;;;;;;;20.71;46.84;99805.59;2082936;28;5187;-76
2021/04/29 02:13:49;;;;;;;;;;;;;;;20.72;46.88;99801.56;2085043;28;4108;-76
2021/04/29 02:14:49;;;;;;;;;;;;;;;20.72;46.86;99807.22;2084679;28;3898;-75
2021/04/29 02:15:50;;;;;;;;;;;;;;;20.71;46.74;99805.59;2084647;28;4013;-76
2021/04/29 02:16:51;;;;;;;;;;;;;;;20.72;46.90;99795.03;2084424;28;3987;-77
2021/04/29 02:17:51;;;;;;;;;;;;;;;20.71;46.82;99805.59;2083574;28;4030;-77
2021/04/29 02:18:52;;;;;;;;;;;;;;;20.71;46.67;99799.09;2084495;28;4014;-77
2021/04/29 02:19:53;;;;;;;;;;;;;;;20.72;46.78;99797.88;2084733;28;3857;-76
2021/04/29 02:20:54;;;;;;;;;;;;;;;20.71;46.74;99799.09;2083439;28;3766;-77
2021/04/29 02:21:54;;;;;;;;;;;;;;;20.71;46.87;99796.25;2084477;28;4168;-77
2021/04/29 02:22:55;;;;;;;;;;;;;;;20.70;46.91;99795.41;2084141;28;3844;-77
2021/04/29 02:23:56;;;;;;;;;;;;;;;20.71;46.67;99790.56;2084912;28;3987;-77
2021/04/29 02:24:57;;;;;;;;;;;;;;;20.71;46.82;99788.53;2084392;28;4015;-77
2021/04/29 02:25:59;;;;;;;;;;;;;;;20.71;46.90;99784.88;2083949;28;4012;-77
2021/04/29 02:27:00;;;;;;;;;;;;;;;20.71;46.86;99784.88;2084596;28;4020;-77
2021/04/29 02:28:01;;;;;;;;;;;;;;;20.72;46.84;99787.34;2084452;28;3942;-77
2021/04/29 02:29:02;;;;;;;;;;;;;;;20.71;46.91;99782.88;2084667;28;3997;-77
2021/04/29 02:30:03;;;;;;;;;;;;;;;20.72;46.88;99783.69;2084619;28;3991;-77
2021/04/29 02:31:04;;;;;;;;;;;;;;;20.72;47.01;99778.81;2083276;28;3955;-78
2021/04/29 02:32:04;;;;;;;;;;;;;;;20.70;47.00;99778.34;2084995;28;3918;-78
2021/04/29 02:33:07;;;;;;;;;;;;;;;20.72;47.03;99781.66;2083838;28;3941;-83
2021/04/29 02:34:07;;;;;;;;;;;;;;;20.71;47.09;99782.88;2084269;28;4017;-84
2021/04/29 02:35:08;;;;;;;;;;;;;;;20.72;47.13;99784.50;2084527;28;4001;-82
2021/04/29 02:36:09;;;;;;;;;;;;;;;20.72;47.03;99778.81;2075844;28;4039;-84
2021/04/29 02:37:10;;;;;;;;;;;;;;;20.72;47.24;99784.50;2075826;28;4011;-83
2021/04/29 02:38:10;;;;;;;;;;;;;;;20.72;47.12;99787.34;2084361;28;5100;-83
2021/04/29 02:39:11;;;;;;;;;;;;;;;20.71;47.10;99782.88;2084787;28;4023;-82
2021/04/29 02:40:12;;;;;;;;;;;;;;;20.72;47.09;99783.69;2084509;28;5194;-83
2021/04/29 02:41:33;;;;;;;;;;;;;;;20.72;47.06;99778.00;2083651;28;4054;-80
2021/04/29 02:42:33;;;;;;;;;;;;;;;20.72;47.01;99775.16;2084862;28;3944;-80
2021/04/29 02:43:34;;;;;;;;;;;;;;;20.72;47.00;99781.66;2084034;28;4000;-81
2021/04/29 02:44:35;;;;;;;;;;;;;;;20.71;47.11;99782.88;2083841;28;5023;-81
2021/04/29 02:45:36;;;;;;;;;;;;;;;20.72;47.03;99778.81;2084076;28;4069;-80
2021/04/29 02:46:36;;;;;;;;;;;;;;;20.73;47.02;99773.94;2084743;28;4009;-82
2021/04/29 02:47:37;;;;;;;;;;;;;;;20.73;47.11;99776.78;2084422;28;3932;-80
2021/04/29 02:48:38;;;;;;;;;;;;;;;20.73;47.14;99771.09;2084093;28;3803;-81
2021/04/29 02:49:38;;;;;;;;;;;;;;;20.73;47.20;99773.94;2084751;28;3773;-80
2021/04/29 02:50:43;;;;;;;;;;;;;;;20.73;47.13;99766.25;2083752;28;3968;-81
2021/04/29 02:51:44;;;;;;;;;;;;;;;20.71;47.27;99762.97;2083826;28;3917;-75
2021/04/29 02:52:44;;;;;;;;;;;;;;;20.73;47.18;99769.09;2084535;28;4270;-75
2021/04/29 02:53:45;;;;;;;;;;;;;;;20.73;47.28;99762.56;2084817;28;3792;-75
2021/04/29 02:54:46;;;;;;;;;;;;;;;20.74;47.23;99767.91;2083710;28;3976;-75
2021/04/29 02:55:47;;;;;;;;;;;;;;;20.74;47.21;99770.75;2083683;28;3788;-75
2021/04/29 02:56:47;;;;;;;;;;;;;;;20.74;47.39;99752.88;2084221;28;4096;-75
2021/04/29 02:57:48;;;;;;;;;;;;;;;20.75;47.27;99765.88;2084712;28;4139;-75
2021/04/29 02:58:49;;;;;;;;;;;;;;;20.74;47.30;99762.22;2084339;28;4000;-75
2021/04/29 02:59:50;;;;;;;;;;;;;;;20.75;47.38;99765.88;2084017;28;3911;-75
2021/04/29 03:00:53;;;;;;;;;;;;;;;20.75;47.28;99765.88;2083743;28;3916;-75
2021/04/29 03:01:54;;;;;;;;;;;;;;;20.75;47.21;99761.00;2084073;28;4005;-76
2021/04/29 03:02:55;;;;;;;;;;;;;;;20.75;47.17;99765.88;2083377;28;4010;-76
2021/04/29 03:03:55;;;;;;;;;;;;;;;20.75;47.30;99757.34;2084768;28;3844;-77
2021/04/29 03:04:56;;;;;;;;;;;;;;;20.75;47.21;99763.84;2083710;28;4033;-76
2021/04/29 03:05:57;;;;;;;;;;;;;;;20.75;47.26;99757.34;2083885;28;5313;-76
2021/04/29 03:06:59;;;;;;;;;;;;;;;20.76;47.23;99758.97;2085813;28;4038;-76
2021/04/29 03:08:00;;;;;;;;;;;;;;;20.75;47.30;99761.00;2085705;28;4096;-76
2021/04/29 03:09:01;;;;;;;;;;;;;;;20.77;47.18;99763.47;2085426;28;4014;-76
2021/04/29 03:10:01;;;;;;;;;;;;;;;20.75;47.23;99758.16;2085843;28;3994;-82
2021/04/29 03:11:02;;;;;;;;;;;;;;;20.76;47.25;99759.81;2085521;28;3938;-82
2021/04/29 03:12:03;;;;;;;;;;;;;;;20.75;47.17;99755.31;2085861;28;3984;-79
2021/04/29 03:13:05;;;;;;;;;;;;;;;20.76;47.25;99753.28;2085578;28;5994;-77
2021/04/29 03:14:06;;;;;;;;;;;;;;;20.75;47.35;99749.63;2085445;28;4000;-77
2021/04/29 03:15:06;;;;;;;;;;;;;;;20.76;47.26;99754.13;2085100;28;4179;-77
2021/04/29 03:16:07;;;;;;;;;;;;;;;20.77;47.27;99749.25;2084998;28;3895;-77
2021/04/29 03:17:08;;;;;;;;;;;;;;;20.76;47.41;99745.59;2084662;28;3742;-77
2021/04/29 03:18:09;;;;;;;;;;;;;;;20.76;47.38;99744.75;2085718;28;3832;-77
2021/04/29 03:19:13;;;;;;;;;;;;;;;20.76;47.41;99745.59;2084664;28;4149;-78
2021/04/29 03:20:14;;;;;;;;;;;;;;;20.77;47.36;99752.09;2085983;28;4046;-77
2021/04/29 03:21:15;;;;;;;;;;;;;;;20.77;47.33;99752.09;2086253;28;3735;-77
2021/04/29 03:22:16;;;;;;;;;;;;;;;20.76;47.24;99754.13;2085735;28;4000;-77
2021/04/29 03:23:16;;;;;;;;;;;;;;;20.76;47.35;99751.28;2086170;28;3998;-77
2021/04/29 03:24:17;;;;;;;;;;;;;;;20.77;47.38;99752.94;2084977;28;4370;-77
2021/04/29 03:25:18;;;;;;;;;;;;;;;20.76;47.42;99753.28;2085530;28;3844;-77
2021/04/29 03:26:18;;;;;;;;;;;;;;;20.77;47.46;99754.94;2084783;28;3990;-77
2021/04/29 03:27:19;;;;;;;;;;;;;;;20.77;47.45;99754.94;2085385;28;4353;-77
2021/04/29 03:28:20;;;;;;;;;;;;;;;20.77;47.38;99760.63;2085609;28;3856;-75
2021/04/29 03:29:21;;;;;;;;;;;;;;;20.77;47.54;99758.59;2085267;28;3990;-75
2021/04/29 03:30:21;;;;;;;;;;;;;;;20.77;47.41;99767.13;2086064;28;4092;-75
2021/04/29 03:31:22;;;;;;;;;;;;;;;20.78;47.27;99768.78;2085263;28;3884;-75
2021/04/29 03:32:23;;;;;;;;;;;;;;;20.77;47.32;99769.16;2085886;28;3843;-75
2021/04/29 03:33:24;;;;;;;;;;;;;;;20.77;47.38;99772.81;2085113;28;4020;-75
2021/04/29 03:34:25;;;;;;;;;;;;;;;20.77;47.33;99780.53;2084394;28;4038;-75
2021/04/29 03:35:26;;;;;;;;;;;;;;;20.77;47.36;99789.88;2085518;28;3816;-74
2021/04/29 03:36:26;;;;;;;;;;;;;;;20.77;47.46;99784.19;2085819;28;4024;-74
2021/04/29 03:37:27;;;;;;;;;;;;;;;20.78;47.44;99788.66;2085435;28;3864;-75
2021/04/29 03:38:28;;;;;;;;;;;;;;;20.76;47.44;99793.94;2085348;28;3843;-74
2021/04/29 03:39:29;;;;;;;;;;;;;;;20.77;47.44;99794.75;2085362;28;3830;-74
2021/04/29 03:40:29;;;;;;;;;;;;;;;20.78;47.37;99804.91;2085793;28;4061;-74
2021/04/29 03:41:31;;;;;;;;;;;;;;;20.78;47.45;99800.03;2085955;28;3980;-75
2021/04/29 03:42:31;;;;;;;;;;;;;;;20.76;47.63;99799.63;2084692;28;4024;-75
2021/04/29 03:43:32;;;;;;;;;;;;;;;20.77;47.35;99808.97;2086403;28;4228;-74
2021/04/29 03:44:33;;;;;;;;;;;;;;;20.77;47.43;99814.63;2085564;28;4061;-74
2021/04/29 03:45:34;;;;;;;;;;;;;;;20.77;47.42;99809.78;2085666;28;4001;-75
2021/04/29 03:46:34;;;;;;;;;;;;;;;20.77;47.52;99812.63;2085947;28;4004;-77
2021/04/29 03:47:35;;;;;;;;;;;;;;;20.76;47.24;99808.13;2076350;28;3835;-77
2021/04/29 03:48:36;;;;;;;;;;;;;;;20.77;47.43;99809.78;2085657;28;4264;-77
2021/04/29 03:49:37;;;;;;;;;;;;;;;20.77;47.41;99814.63;2085286;28;3770;-77
2021/04/29 03:50:38;;;;;;;;;;;;;;;20.78;47.29;99819.13;2085007;28;3761;-77
2021/04/29 03:51:39;;;;;;;;;;;;;;;20.77;47.35;99815.47;2085820;28;3794;-77
2021/04/29 03:52:39;;;;;;;;;;;;;;;20.78;47.56;99810.59;2085019;28;3922;-76
2021/04/29 03:53:40;;;;;;;;;;;;;;;20.78;47.44;99800.03;2085896;28;4084;-77
2021/04/29 03:54:41;;;;;;;;;;;;;;;20.78;47.43;99793.53;2085514;28;3949;-77
2021/04/29 03:55:42;;;;;;;;;;;;;;;20.77;47.39;99789.88;2085403;28;3995;-75
2021/04/29 03:56:42;;;;;;;;;;;;;;;20.78;47.51;99771.63;2085794;28;3790;-75
2021/04/29 03:57:44;;;;;;;;;;;;;;;20.79;47.44;99755.41;2084645;28;4185;-74
2021/04/29 03:58:45;;;;;;;;;;;;;;;20.77;47.43;99738.72;2085060;28;3775;-74
2021/04/29 03:59:46;;;;;;;;;;;;;;;20.77;47.56;99730.19;2085294;28;3858;-74
2021/04/29 04:00:46;;;;;;;;;;;;;;;20.78;47.54;99725.31;2084630;28;4844;-75
2021/04/29 04:01:47;;;;;;;;;;;;;;;20.77;47.54;99718.81;2084945;28;3873;-74
2021/04/29 04:02:48;;;;;;;;;;;;;;;20.78;47.55;99722.47;2084643;28;4038;-74
2021/04/29 04:03:49;;;;;;;;;;;;;;;20.78;47.46;99731.81;2085160;28;3993;-74
2021/04/29 04:04:49;;;;;;;;;;;;;;;20.77;47.45;99752.94;2083613;28;4008;-74
2021/04/29 04:05:50;;;;;;;;;;;;;;;20.78;47.44;99788.66;2085533;28;3920;-74
2021/04/29 04:06:53;;;;;;;;;;;;;;;20.78;47.42;99807.75;2084733;28;3897;-74
2021/04/29 04:07:54;;;;;;;;;;;;;;;20.77;47.40;99826.81;2084871;28;3826;-74
2021/04/29 04:08:54;;;;;;;;;;;;;;;20.78;47.55;99824.78;2085033;28;4002;-74
2021/04/29 04:09:55;;;;;;;;;;;;;;;20.77;47.64;99815.47;2083519;28;5000;-74
2021/04/29 04:10:56;;;;;;;;;;;;;;;20.78;47.47;99813.44;2085526;28;4911;-74
2021/04/29 04:11:57;;;;;;;;;;;;;;;20.78;47.64;99805.72;2085610;28;4037;-74
2021/04/29 04:12:58;;;;;;;;;;;;;;;20.78;47.52;99804.91;2084336;28;5216;-73
2021/04/29 04:13:59;;;;;;;;;;;;;;;20.78;47.62;99793.53;2083929;28;4111;-73
2021/04/29 04:15:00;;;;;;;;;;;;;;;20.78;47.50;99794.34;2084543;28;3855;-74
2021/04/29 04:16:02;;;;;;;;;;;;;;;20.77;47.67;99789.88;2084022;28;3868;-74
2021/04/29 04:17:03;;;;;;;;;;;;;;;20.78;47.55;99780.13;2084665;28;4011;-74
2021/04/29 04:18:04;;;;;;;;;;;;;;;20.78;47.69;99774.44;2085536;28;4019;-73
2021/04/29 04:19:04;;;;;;;;;;;;;;;20.78;47.53;99765.94;2084962;28;4013;-74
2021/04/29 04:20:05;;;;;;;;;;;;;;;20.78;47.71;99760.25;2085126;28;4155;-75
2021/04/29 04:21:06;;;;;;;;;;;;;;;20.79;47.56;99761.09;2084090;28;3866;-74
2021/04/29 04:22:07;;;;;;;;;;;;;;;20.78;47.66;99751.72;2084389;28;4073;-72
2021/04/29 04:23:09;;;;;;;;;;;;;;;20.78;47.70;99737.50;2084111;28;3989;-73
2021/04/29 04:24:12;;;;;;;;;;;;;;;20.79;47.67;99726.97;2085280;28;3962;-76
2021/04/29 04:25:13;;;;;;;;;;;;;;;20.79;47.73;99732.66;2084576;28;5019;-73
2021/04/29 04:26:14;;;;;;;;;;;;;;;20.79;47.78;99727.78;2084549;28;4197;-81
2021/04/29 04:27:15;;;;;;;;;;;;;;;20.79;47.76;99736.31;2085148;28;3854;-81
2021/04/29 04:28:15;;;;;;;;;;;;;;;20.79;47.67;99722.09;2082881;28;4017;-75
2021/04/29 04:29:16;;;;;;;;;;;;;;;20.80;47.74;99717.25;2085350;28;4007;-74
2021/04/29 04:30:17;;;;;;;;;;;;;;;20.79;47.63;99716.44;2085219;28;3843;-74
2021/04/29 04:31:18;;;;;;;;;;;;;;;20.80;47.57;99708.72;2083779;28;4058;-74
2021/04/29 04:32:18;;;;;;;;;;;;;;;20.80;47.64;99717.25;2085597;28;3814;-74
2021/04/29 04:33:19;;;;;;;;;;;;;;;20.80;47.60;99703.84;2084945;28;3933;-78
2021/04/29 04:34:20;;;;;;;;;;;;;;;20.79;47.66;99701.41;2084431;28;4001;-79
2021/04/29 04:35:20;;;;;;;;;;;;;;;20.80;47.59;99711.56;2086092;28;3971;-78
2021/04/29 04:36:21;;;;;;;;;;;;;;;20.80;47.66;99703.84;2084469;28;4012;-77
2021/04/29 04:37:22;;;;;;;;;;;;;;;20.80;47.49;99715.22;2085298;28;3993;-77
2021/04/29 04:38:23;;;;;;;;;;;;;;;20.80;47.67;99720.91;2085013;28;3814;-74
2021/04/29 04:39:23;;;;;;;;;;;;;;;20.81;47.68;99727.41;2084871;28;5290;-75
2021/04/29 04:40:24;;;;;;;;;;;;;;;20.80;47.67;99722.91;2084585;28;4030;-75
2021/04/29 04:41:25;;;;;;;;;;;;;;;20.81;47.63;99730.25;2084689;28;4180;-76
2021/04/29 04:42:26;;;;;;;;;;;;;;;20.81;47.54;99735.94;2083863;28;3813;-75
2021/04/29 04:43:27;;;;;;;;;;;;;;;20.80;47.56;99728.59;2085291;28;6119;-76
2021/04/29 04:44:28;;;;;;;;;;;;;;;20.81;47.56;99730.25;2085056;28;3854;-76
2021/04/29 04:45:29;;;;;;;;;;;;;;;20.81;47.60;99728.22;2084472;28;3973;-75
2021/04/29 04:46:30;;;;;;;;;;;;;;;20.81;47.58;99721.72;2085026;28;3987;-82
2021/04/29 04:47:31;;;;;;;;;;;;;;;20.81;47.46;99702.63;2086050;28;3972;-82
2021/04/29 04:48:32;;;;;;;;;;;;;;;20.81;47.51;99702.63;2084389;28;3984;-82
2021/04/29 04:49:33;;;;;;;;;;;;;;;20.81;47.55;99696.13;2084210;28;4053;-81
2021/04/29 04:50:34;;;;;;;;;;;;;;;20.81;47.60;99693.28;2084214;28;3992;-81
2021/04/29 04:51:35;;;;;;;;;;;;;;;20.80;47.56;99692.47;2084038;28;4004;-81
2021/04/29 04:52:35;;;;;;;;;;;;;;;20.80;47.44;99712.38;2084052;28;5048;-80
2021/04/29 04:53:36;;;;;;;;;;;;;;;20.80;47.40;99715.22;2085170;28;3807;-81
2021/04/29 04:54:37;;;;;;;;;;;;;;;20.82;47.51;99729.06;2083875;28;3931;-81
2021/04/29 04:55:43;;;;;;;;;;;;;;;20.80;47.42;99729.44;2085249;28;3989;-82
2021/04/29 04:56:46;;;;;;;;;;;;;;;20.80;47.47;99735.09;2083864;28;3938;-81
2021/04/29 04:57:46;;;;;;;;;;;;;;;20.81;47.45;99736.75;2083812;28;3948;-80
2021/04/29 04:58:47;;;;;;;;;;;;;;;20.81;47.63;99738.75;2085357;28;6730;-82
2021/04/29 04:59:48;;;;;;;;;;;;;;;20.81;47.52;99739.59;2082577;28;3842;-81
2021/04/29 05:00:49;;;;;;;;;;;;;;;20.81;47.50;99742.44;2085567;28;3996;-80
2021/04/29 05:01:50;;;;;;;;;;;;;;;20.80;47.51;99749.31;2084608;28;3886;-78
2021/04/29 05:02:50;;;;;;;;;;;;;;;20.81;47.56;99759.47;2083657;28;4021;-78
2021/04/29 05:03:51;;;;;;;;;;;;;;;20.81;47.56;99759.47;2083558;28;3840;-77
2021/04/29 05:04:52;;;;;;;;;;;;;;;20.81;47.59;99761.50;2083571;28;4020;-77
2021/04/29 05:05:53;;;;;;;;;;;;;;;20.82;47.57;99766.00;2083494;28;3984;-77
2021/04/29 05:06:54;;;;;;;;;;;;;;;20.82;47.59;99771.69;2084262;28;4067;-77
2021/04/29 05:07:55;;;;;;;;;;;;;;;20.81;47.45;99776.53;2084669;28;3984;-76
2021/04/29 05:08:55;;;;;;;;;;;;;;;20.82;47.48;99777.38;2085116;28;4082;-76
2021/04/29 05:09:56;;;;;;;;;;;;;;;20.81;47.47;99782.22;2083025;28;4013;-76
2021/04/29 05:10:57;;;;;;;;;;;;;;;20.83;47.61;99793.22;2083744;28;4194;-77
2021/04/29 05:11:58;;;;;;;;;;;;;;;20.86;48.35;99795.31;2083971;28;3988;-89
2021/04/29 05:13:01;;;;;;;;;;;;;;;20.85;47.62;99793.69;2085150;28;3825;-80
2021/04/29 05:14:02;;;;;;;;;;;;;;;20.84;47.63;99777.81;2083961;28;4022;-77
2021/04/29 05:15:03;;;;;;;;;;;;;;;20.84;47.61;99789.19;2083508;28;4136;-78
2021/04/29 05:16:03;;;;;;;;;;;;;;;20.84;47.66;99780.66;2084176;28;4130;-83
2021/04/29 05:17:04;;;;;;;;;;;;;;;20.83;47.68;99782.69;2084506;28;4081;-78
2021/04/29 05:18:06;;;;;;;;;;;;;;;20.83;47.64;99779.84;2084730;28;4076;-78
2021/04/29 05:19:06;;;;;;;;;;;;;;;20.83;47.74;99791.19;2085223;28;3853;-77
2021/04/29 05:20:07;;;;;;;;;;;;;;;20.84;47.66;99797.69;2084440;28;4041;-77
2021/04/29 05:21:08;;;;;;;;;;;;;;;20.84;47.51;99797.69;2084280;28;3858;-77
2021/04/29 05:22:13;;;;;;;;;;;;;;;20.83;47.57;99791.19;2083646;28;3868;-77